createdAt,value
2022-09-04T00:02:35.787Z,16.29
2022-09-04T00:05:12.391Z,16.19
2022-09-04T00:08:06.997Z,16.02
2022-09-04T00:10:40.715Z,15.80
2022-09-04T00:13:31.306Z,15.76
2022-09-04T00:16:10.373Z,15.71
2022-09-04T00:18:41.671Z,15.65
2022-09-04T00:21:29.176Z,15.58
2022-09-04T00:23:58.463Z,15.46
2022-09-04T00:26:49.304Z,15.40
2022-09-04T00:29:51.633Z,15.38
2022-09-04T00:32:40.507Z,15.43
2022-09-04T00:35:31.638Z,15.39
2022-09-04T00:38:02.213Z,15.33
2022-09-04T00:40:41.007Z,15.35
2022-09-04T00:43:26.354Z,15.43
2022-09-04T00:46:16.477Z,15.45
2022-09-04T00:49:02.055Z,15.50
2022-09-04T00:52:07.008Z,15.51
2022-09-04T00:54:54.098Z,15.61
2022-09-04T00:57:50.126Z,15.72
2022-09-04T01:00:21.042Z,15.73
2022-09-04T01:03:04.114Z,15.71
2022-09-04T01:05:55.219Z,15.70
2022-09-04T01:08:56.021Z,15.67
2022-09-04T01:11:43.601Z,15.64
2022-09-04T01:14:14.772Z,15.54
2022-09-04T01:16:46.955Z,15.44
2022-09-04T01:19:50.030Z,15.37
2022-09-04T01:22:36.798Z,15.27
2022-09-04T01:25:29.881Z,15.20
2022-09-04T01:28:08.101Z,15.18
2022-09-04T01:30:42.067Z,15.17
2022-09-04T01:33:29.781Z,15.15
2022-09-04T01:36:02.798Z,15.19
2022-09-04T01:38:44.252Z,15.25
2022-09-04T01:41:16.217Z,15.25
2022-09-04T01:43:43.353Z,15.26
2022-09-04T01:46:48.376Z,15.29
2022-09-04T01:49:36.956Z,15.34
2022-09-04T01:52:24.086Z,15.38
2022-09-04T01:54:57.225Z,15.41
2022-09-04T01:57:50.432Z,15.40
2022-09-04T02:00:20.177Z,15.44
2022-09-04T02:03:22.758Z,15.48
2022-09-04T02:06:24.787Z,15.49
2022-09-04T02:09:15.606Z,15.47
2022-09-04T02:11:49.206Z,15.45
2022-09-04T02:14:54.774Z,15.41
2022-09-04T02:17:34.108Z,15.40
2022-09-04T02:20:09.517Z,15.37
2022-09-04T02:22:50.610Z,15.40
2022-09-04T02:25:29.189Z,15.42
2022-09-04T02:28:22.178Z,15.44
2022-09-04T02:30:56.704Z,15.48
2022-09-04T02:33:36.915Z,15.50
2022-09-04T02:36:24.011Z,15.53
2022-09-04T02:39:11.055Z,15.54
2022-09-04T02:41:51.283Z,15.48
2022-09-04T02:44:38.373Z,15.47
2022-09-04T02:47:13.673Z,15.46
2022-09-04T02:50:16.011Z,15.42
2022-09-04T02:53:14.706Z,15.45
2022-09-04T02:55:57.853Z,15.36
2022-09-04T02:58:44.429Z,15.30
2022-09-04T03:01:15.105Z,15.29
2022-09-04T03:04:00.737Z,15.22
2022-09-04T03:06:48.772Z,15.13
2022-09-04T03:09:36.263Z,15.11
2022-09-04T03:12:15.790Z,15.10
2022-09-04T03:14:46.991Z,15.15
2022-09-04T03:17:24.039Z,15.15
2022-09-04T03:19:54.044Z,15.17
2022-09-04T03:22:27.807Z,15.19
2022-09-04T03:25:21.743Z,15.23
2022-09-04T03:27:48.666Z,15.24
2022-09-04T03:30:15.717Z,15.15
2022-09-04T03:32:48.745Z,15.09
2022-09-04T03:35:21.656Z,15.09
2022-09-04T03:38:22.610Z,15.05
2022-09-04T03:40:57.786Z,15.08
2022-09-04T03:43:36.441Z,15.15
2022-09-04T03:46:17.096Z,15.13
2022-09-04T03:48:52.450Z,15.10
2022-09-04T03:51:25.826Z,14.93
2022-09-04T03:54:08.014Z,14.80
2022-09-04T03:56:57.860Z,14.71
2022-09-04T04:00:04.546Z,14.68
2022-09-04T04:02:58.003Z,14.64
2022-09-04T04:05:48.253Z,14.56
2022-09-04T04:08:47.249Z,14.56
2022-09-04T04:11:50.640Z,14.50
2022-09-04T04:14:38.488Z,14.50
2022-09-04T04:17:23.532Z,14.46
2022-09-04T04:20:13.404Z,14.48
2022-09-04T04:23:01.157Z,14.57
2022-09-04T04:25:54.167Z,14.53
2022-09-04T04:28:39.467Z,14.61
2022-09-04T04:31:21.064Z,14.73
2022-09-04T04:34:02.361Z,14.85
2022-09-04T04:36:40.250Z,14.94
2022-09-04T04:39:12.002Z,14.95
2022-09-04T04:42:07.147Z,14.96
2022-09-04T04:45:15.606Z,14.97
2022-09-04T04:48:00.853Z,15.02
2022-09-04T04:50:46.255Z,15.11
2022-09-04T04:53:30.765Z,15.20
2022-09-04T04:56:04.062Z,15.25
2022-09-04T04:58:57.086Z,15.29
2022-09-04T05:01:44.140Z,15.40
2022-09-04T05:04:17.951Z,15.55
2022-09-04T05:07:10.763Z,15.63
2022-09-04T05:09:44.858Z,15.60
2022-09-04T05:12:19.296Z,15.65
2022-09-04T05:14:52.775Z,15.74
2022-09-04T05:17:46.037Z,15.72
2022-09-04T05:20:48.895Z,15.73
2022-09-04T05:23:44.934Z,15.74
2022-09-04T05:26:17.628Z,15.67
2022-09-04T05:28:49.047Z,15.61
2022-09-04T05:31:22.526Z,15.66
2022-09-04T05:33:55.669Z,15.77
2022-09-04T05:36:50.882Z,15.84
2022-09-04T05:39:25.267Z,15.90
2022-09-04T05:42:11.095Z,15.91
2022-09-04T05:44:56.604Z,16.03
2022-09-04T05:47:43.863Z,16.25
2022-09-04T05:50:37.212Z,16.33
2022-09-04T05:53:36.518Z,16.38
2022-09-04T05:56:38.515Z,16.47
2022-09-04T05:59:31.284Z,16.57
2022-09-04T06:02:18.534Z,16.72
2022-09-04T06:05:21.436Z,16.85
2022-09-04T06:08:17.667Z,16.91
2022-09-04T06:11:04.753Z,16.98
2022-09-04T06:13:45.855Z,17.15
2022-09-04T06:16:40.840Z,17.20
2022-09-04T06:19:24.409Z,17.23
2022-09-04T06:22:21.304Z,17.30
2022-09-04T06:25:06.301Z,17.38
2022-09-04T06:27:58.882Z,17.49
2022-09-04T06:30:30.685Z,17.55
2022-09-04T06:33:08.941Z,17.59
2022-09-04T06:35:50.995Z,17.51
2022-09-04T06:38:36.561Z,17.53
2022-09-04T06:41:18.894Z,17.53
2022-09-04T06:44:24.084Z,17.50
2022-09-04T06:47:11.143Z,17.57
2022-09-04T06:50:16.690Z,17.56
2022-09-04T06:53:09.973Z,17.58
2022-09-04T06:56:13.665Z,17.65
2022-09-04T07:32:33.899Z,18.92
2022-09-04T07:35:09.047Z,18.96
2022-09-04T07:37:58.977Z,19.07
2022-09-04T07:40:38.360Z,19.12
2022-09-04T07:43:25.572Z,19.18
2022-09-04T07:46:01.500Z,19.19
2022-09-04T07:48:32.219Z,19.20
2022-09-04T07:51:10.924Z,19.20
2022-09-04T07:54:04.502Z,19.24
2022-09-04T07:56:49.523Z,19.37
2022-09-04T07:59:39.733Z,19.47
2022-09-04T08:02:22.814Z,19.52
2022-09-04T08:05:16.720Z,19.57
2022-09-04T08:07:51.989Z,19.72
2022-09-04T08:10:44.996Z,19.74
2022-09-04T08:13:44.007Z,19.87
2022-09-04T08:16:43.227Z,20.07
2022-09-04T08:19:28.605Z,19.94
2022-09-04T08:21:57.082Z,19.95
2022-09-04T08:24:53.386Z,20.05
2022-09-04T08:27:44.446Z,20.22
2022-09-04T08:30:13.723Z,20.33
2022-09-04T08:33:07.156Z,20.33
2022-09-04T08:35:35.276Z,20.39
2022-09-04T08:38:31.562Z,20.61
2022-09-04T08:41:17.185Z,20.88
2022-09-04T08:44:10.228Z,21.06
2022-09-04T08:46:55.756Z,21.22
2022-09-04T08:49:45.692Z,21.28
2022-09-04T08:52:48.007Z,21.37
2022-09-04T08:55:51.796Z,21.54
2022-09-04T08:58:37.494Z,21.75
2022-09-04T09:01:23.157Z,21.93
2022-09-04T09:04:25.560Z,22.19
2022-09-04T09:07:11.255Z,22.34
2022-09-04T09:10:17.376Z,22.42
2022-09-04T09:40:36.970Z,23.55
2022-09-04T09:43:31.940Z,23.64
2022-09-04T09:46:14.923Z,23.86
2022-09-04T10:06:02.910Z,25.15
2022-09-04T10:08:51.811Z,25.26
2022-09-04T10:11:45.857Z,25.47
2022-09-04T10:14:31.887Z,25.71
2022-09-04T10:17:22.969Z,25.98
2022-09-04T10:28:41.654Z,27.19
2022-09-04T10:31:27.236Z,27.11
2022-09-04T10:34:12.325Z,27.21
2022-09-04T10:37:02.001Z,27.54
2022-09-04T10:40:07.763Z,27.81
2022-09-04T10:42:54.818Z,28.14
2022-09-04T10:45:33.065Z,28.22
2022-09-04T10:48:18.413Z,28.50
2022-09-04T10:51:05.873Z,28.92
2022-09-04T10:53:44.266Z,29.06
2022-09-04T10:56:16.831Z,28.91
2022-09-04T10:59:03.945Z,29.11
2022-09-04T11:01:56.696Z,29.61
2022-09-04T11:04:45.972Z,29.98
2022-09-04T11:07:29.339Z,30.44
2022-09-04T11:10:16.297Z,30.82
2022-09-04T11:12:56.635Z,30.65
2022-09-04T11:15:58.619Z,30.69
2022-09-04T11:18:34.797Z,30.97
2022-09-04T11:21:21.743Z,31.16
2022-09-04T11:24:07.725Z,31.01
2022-09-04T11:26:55.030Z,31.38
2022-09-04T11:29:41.390Z,31.96
2022-09-04T11:32:32.079Z,32.22
2022-09-04T11:35:18.128Z,31.66
2022-09-04T11:38:07.810Z,31.80
2022-09-04T11:40:55.458Z,32.30
2022-09-04T11:43:54.872Z,32.29
2022-09-04T11:46:51.299Z,32.49
2022-09-04T11:49:47.448Z,32.89
2022-09-04T11:52:32.081Z,33.12
2022-09-04T11:55:08.594Z,33.33
2022-09-04T11:57:44.772Z,33.57
2022-09-04T12:00:17.088Z,33.49
2022-09-04T12:03:04.096Z,33.44
2022-09-04T12:05:50.875Z,33.69
2022-09-04T12:08:39.593Z,33.73
2022-09-04T12:11:25.250Z,33.32
2022-09-04T12:14:04.139Z,33.28
2022-09-04T12:16:47.436Z,33.32
2022-09-04T12:19:43.826Z,33.23
2022-09-04T12:22:31.279Z,32.78
2022-09-04T12:25:18.375Z,32.81
2022-09-04T12:28:11.810Z,32.29
2022-09-04T12:30:58.930Z,31.51
2022-09-04T12:33:46.718Z,31.31
2022-09-04T13:07:56.779Z,29.89
2022-09-04T13:10:48.391Z,29.86
2022-09-04T13:13:31.221Z,29.71
2022-09-04T13:16:16.676Z,29.55
2022-09-04T13:19:07.333Z,29.50
2022-09-04T13:21:51.583Z,29.47
2022-09-04T13:24:32.006Z,29.37
2022-09-04T13:27:28.044Z,29.37
2022-09-04T13:30:08.679Z,29.49
2022-09-04T13:32:55.568Z,29.76
2022-09-04T13:35:47.639Z,30.44
2022-09-04T13:38:32.955Z,30.53
2022-09-04T13:41:30.603Z,30.82
2022-09-04T13:44:39.406Z,31.59
2022-09-04T13:47:12.251Z,32.27
2022-09-04T13:49:42.613Z,32.87
2022-09-04T13:52:13.084Z,33.27
2022-09-04T13:54:42.881Z,33.57
2022-09-04T13:57:21.441Z,33.42
2022-09-04T13:59:50.376Z,33.16
2022-09-04T14:02:24.615Z,32.67
2022-09-04T14:04:54.732Z,32.37
2022-09-04T14:07:29.833Z,32.05
2022-09-04T14:09:58.530Z,31.46
2022-09-04T14:12:36.799Z,31.04
2022-09-04T14:15:32.987Z,30.82
2022-09-04T14:18:14.137Z,30.54
2022-09-04T14:20:52.054Z,30.16
2022-09-04T14:23:27.760Z,29.88
2022-09-04T14:26:09.906Z,29.41
2022-09-04T14:28:53.846Z,29.29
2022-09-04T14:31:27.435Z,29.26
2022-09-04T14:34:13.931Z,29.38
2022-09-04T14:37:01.234Z,29.45
2022-09-04T14:39:52.708Z,29.54
2022-09-04T14:42:27.414Z,29.60
2022-09-04T14:45:13.353Z,30.05
2022-09-04T14:47:53.766Z,30.64
2022-09-04T14:50:24.702Z,31.18
2022-09-04T14:52:59.290Z,31.39
2022-09-04T14:55:40.303Z,31.55
2022-09-04T14:58:29.972Z,31.54
2022-09-04T15:01:26.400Z,31.60
2022-09-04T15:03:57.268Z,31.77
2022-09-04T15:06:32.486Z,31.70
2022-09-04T15:09:39.561Z,31.47
2022-09-04T15:12:42.090Z,30.91
2022-09-04T15:15:32.446Z,30.16
2022-09-04T15:18:18.161Z,29.63
2022-09-04T15:20:58.935Z,29.32
2022-09-04T15:23:45.932Z,29.00
2022-09-04T15:26:46.696Z,28.66
2022-09-04T15:29:22.699Z,28.42
2022-09-04T15:31:59.809Z,28.08
2022-09-04T15:34:27.787Z,27.80
2022-09-04T15:36:54.759Z,27.47
2022-09-04T15:39:29.493Z,27.03
2022-09-04T15:41:56.299Z,26.71
2022-09-04T15:44:29.907Z,26.42
2022-09-04T15:47:06.618Z,26.25
2022-09-04T15:49:52.914Z,26.17
2022-09-04T15:52:40.864Z,25.74
2022-09-04T15:55:26.146Z,25.51
2022-09-04T15:58:04.928Z,25.46
2022-09-04T16:00:35.112Z,25.23
2022-09-04T16:03:31.088Z,25.12
2022-09-04T16:06:01.110Z,25.07
2022-09-04T16:08:46.509Z,24.90
2022-09-04T16:11:35.052Z,24.74
2022-09-04T16:14:22.157Z,24.61
2022-09-04T16:16:53.240Z,24.49
2022-09-04T16:19:30.357Z,24.40
2022-09-04T16:22:18.457Z,24.23
2022-09-04T16:24:52.146Z,24.07
2022-09-04T16:27:21.354Z,23.95
2022-09-04T16:29:53.350Z,23.74
2022-09-04T16:32:22.392Z,23.55
2022-09-04T16:34:53.038Z,23.40
2022-09-04T16:37:42.543Z,23.29
2022-09-04T16:40:38.653Z,23.23
2022-09-04T16:43:34.689Z,23.07
2022-09-04T16:46:25.531Z,22.99
2022-09-04T16:48:58.193Z,22.93
2022-09-04T16:51:41.026Z,22.73
2022-09-04T16:54:31.858Z,22.54
2022-09-04T16:57:12.374Z,22.44
2022-09-04T16:59:57.476Z,22.40
2022-09-04T17:02:48.977Z,22.37
2022-09-04T17:05:19.947Z,22.33
2022-09-04T17:07:59.135Z,22.23
2022-09-04T17:10:36.155Z,22.15
2022-09-04T17:13:13.018Z,22.03
2022-09-04T17:15:53.544Z,21.94
2022-09-04T17:18:25.630Z,21.84
2022-09-04T17:26:34.618Z,21.71
2022-09-04T17:29:04.100Z,21.58
2022-09-04T17:29:08.800Z,21.50
2022-09-04T17:30:51.154Z,21.41
2022-09-04T17:37:37.042Z,21.32
2022-09-04T17:40:34.727Z,21.25
2022-09-04T17:40:46.827Z,21.19
2022-09-04T17:42:26.613Z,21.17
2022-09-04T17:45:01.884Z,21.13
2022-09-04T17:47:38.282Z,21.08
2022-09-04T17:50:11.394Z,21.06
2022-09-04T17:52:58.977Z,21.04
2022-09-04T17:55:27.063Z,21.05
2022-09-04T17:58:15.502Z,21.03
2022-09-04T18:01:15.179Z,20.91
2022-09-04T18:04:20.898Z,20.83
2022-09-04T18:06:57.271Z,20.79
2022-09-04T18:09:50.420Z,20.75
2022-09-04T18:12:25.395Z,20.72
2022-09-04T18:15:33.651Z,20.72
2022-09-04T18:18:27.676Z,20.72
2022-09-04T18:21:08.556Z,20.65
2022-09-04T18:23:55.618Z,20.66
2022-09-04T18:26:40.105Z,20.69
2022-09-04T18:33:46.019Z,20.64
2022-09-04T18:37:10.140Z,20.55
2022-09-04T18:37:20.788Z,20.47
2022-09-04T18:38:30.786Z,20.46
2022-09-04T18:44:11.850Z,20.36
2022-09-04T18:50:30.524Z,20.30
2022-09-04T18:50:45.998Z,20.31
2022-09-04T18:50:51.557Z,20.31
2022-09-04T18:52:14.003Z,20.29
2022-09-04T18:54:49.449Z,20.27
2022-09-04T18:57:51.936Z,20.24
2022-09-04T19:00:27.497Z,20.26
2022-09-04T19:03:00.804Z,20.24
2022-09-04T19:05:44.943Z,20.21
2022-09-04T19:08:21.964Z,20.18
2022-09-04T19:10:54.889Z,20.07
2022-09-04T19:13:31.670Z,20.10
2022-09-04T19:16:09.084Z,20.04
2022-09-04T19:18:46.933Z,19.98
2022-09-04T19:21:23.681Z,19.93
2022-09-04T19:24:13.960Z,19.93
2022-09-04T19:27:00.983Z,19.95
2022-09-04T19:29:56.789Z,19.97
2022-09-04T19:33:22.384Z,19.86
2022-09-04T19:35:53.988Z,19.79
2022-09-04T19:46:02.898Z,19.78
2022-09-04T19:46:07.639Z,19.80
2022-09-04T19:46:15.633Z,19.81
2022-09-04T19:47:28.696Z,19.81
2022-09-04T19:53:19.482Z,19.82
2022-09-04T19:53:40.658Z,19.86
2022-09-04T19:55:55.823Z,19.82
2022-09-04T19:58:36.202Z,19.80
2022-09-04T20:01:03.894Z,19.82
2022-09-04T20:03:50.523Z,19.80
2022-09-04T20:06:24.542Z,19.77
2022-09-04T20:09:09.888Z,19.75
2022-09-04T20:11:46.131Z,19.75
2022-09-04T20:14:36.076Z,19.78
2022-09-04T20:17:23.112Z,19.79
2022-09-04T20:19:55.934Z,19.80
2022-09-04T20:22:32.281Z,19.81
2022-09-04T20:25:19.273Z,19.82
2022-09-04T20:27:54.163Z,19.80
2022-09-04T20:30:24.986Z,19.75
2022-09-04T20:33:11.853Z,19.70
2022-09-04T20:35:52.556Z,19.66
2022-09-04T20:38:30.641Z,19.67
2022-09-04T20:41:02.726Z,19.61
2022-09-04T20:43:46.943Z,19.58
2022-09-04T20:51:07.659Z,19.52
2022-09-04T20:52:55.883Z,19.47
2022-09-04T20:53:10.668Z,19.44
2022-09-04T20:56:08.375Z,19.38
2022-09-04T21:03:10.665Z,19.33
2022-09-04T21:03:21.362Z,19.26
2022-09-04T21:04:43.653Z,19.23
2022-09-04T21:07:29.096Z,19.15
2022-09-04T21:10:18.931Z,19.12
2022-09-04T21:12:49.750Z,19.12
2022-09-04T21:15:42.898Z,19.11
2022-09-04T21:18:19.600Z,19.10
2022-09-04T21:21:05.045Z,19.10
2022-09-04T21:24:02.806Z,19.11
2022-09-04T21:26:56.159Z,19.02
2022-09-04T21:29:43.345Z,18.99
2022-09-04T21:32:22.936Z,19.01
2022-09-04T21:34:57.600Z,19.01
2022-09-04T21:37:50.539Z,18.98
2022-09-04T21:40:50.891Z,18.97
2022-09-04T21:43:42.081Z,18.95
2022-09-04T21:46:21.319Z,18.91
2022-09-04T21:49:26.274Z,18.86
2022-09-04T21:52:12.575Z,18.81
2022-09-04T21:57:23.881Z,18.79
2022-09-04T22:02:30.673Z,18.79
2022-09-04T22:02:44.602Z,18.82
2022-09-04T22:04:44.507Z,18.84
2022-09-04T22:11:19.446Z,18.92
2022-09-04T22:13:42.098Z,18.94
2022-09-04T22:13:55.153Z,18.95
2022-09-04T22:16:49.098Z,18.95
2022-09-04T22:19:34.713Z,18.95
2022-09-04T22:22:25.668Z,18.93
2022-09-04T22:25:11.211Z,18.95
2022-09-04T22:28:08.489Z,18.93
2022-09-04T22:31:10.453Z,18.91
2022-09-04T22:34:15.706Z,18.84
2022-09-04T22:37:02.019Z,18.86
2022-09-04T22:39:51.844Z,18.88
2022-09-04T22:42:37.218Z,18.90
2022-09-04T22:45:22.641Z,18.93
2022-09-04T22:48:02.044Z,18.95
2022-09-04T22:51:01.215Z,18.97
2022-09-04T22:53:54.172Z,18.94
2022-09-04T22:56:40.507Z,18.86
2022-09-04T22:59:27.043Z,18.80
2022-09-04T23:02:14.147Z,18.80
2022-09-04T23:05:07.102Z,18.80
2022-09-04T23:13:44.440Z,18.87
2022-09-04T23:13:53.063Z,18.82
2022-09-04T23:14:06.693Z,18.88
2022-09-04T23:16:52.944Z,18.86
2022-09-04T23:26:30.989Z,18.83
2022-09-04T23:26:36.991Z,18.80
2022-09-04T23:29:03.112Z,18.74
2022-09-04T23:31:51.819Z,18.69
2022-09-04T23:34:40.258Z,18.65
2022-09-04T23:37:40.024Z,18.56
2022-09-04T23:40:27.592Z,18.45
2022-09-04T23:43:26.708Z,18.40
2022-09-04T23:46:13.794Z,18.36
2022-09-04T23:49:05.566Z,18.30
2022-09-04T23:51:47.117Z,18.18
2022-09-04T23:54:32.668Z,18.11
2022-09-04T23:57:11.154Z,18.11
